Hovedside
METAR-TAF:

METAR-TAF

Lufthavner :

Šiauliai, Litauen

breddegrad: 55-53-38N, lengdegrad: 023-23-42E, høyde over havet: 135 m

Gjeldene værobservasjon

Denne rapporten ble laget for 22 minutter siden, klokken 18:50 UTC
Vind 5 kt fra Nordøst, skiftende mellom Nord-nordøst og Øst
Temperatur -2°C
Luftfuktighet 93%
Trykk 1030 hPa
Sikt 10 km eller mer
Overskyet i en høyde av 700 ft

METAR: EYSA 211850Z 04005KT 020V080 9999 OVC007 M02/M03 Q1030 R32R/09//95 GRN NOSIG

Tid: 21:12 (19:12 UTC)

Varsel

Denne rapporten ble laget for 2 timer og 12 minutter siden, klokken 17:00 UTC
Varsel gyldig fra 21. klokken 18 UTC til 22. klokken 03 UTC
Vind 4 kt fra skiftende retning
Sikt: 9000 m
Overskyet i en høyde av 700 ft

TAF: EYSA 211700Z 2118/2203 VRB04KT 9000 OVC007

Værobservasjoner og værvarsel for over 4000 flyplasser (METAR- og TAF-rapporter).

Tilgjengelige stasjoner er representert av de røde og gule prikkene på kartet.

Hold musepekeren over prikken for å se navnet på stasjonen.

Klikk så for å se værobservasjoner og -varsler.

For å forandre kartet kan du klikke på den grønne knappen med svart kryss for å zoome inn, på den grønne knappen med strek for å zoome ut, eller på de grønne pilene for å se tilstøtende kart.


METAR-TAF: